createdAt,value
2018-06-01T00:01:12.852Z,30.63
2018-06-01T00:03:45.873Z,28.70
2018-06-01T00:06:18.814Z,36.77
2018-06-01T00:08:51.374Z,33.90
2018-06-01T00:11:24.982Z,27.23
2018-06-01T00:13:58.015Z,22.40
2018-06-01T00:16:35.330Z,27.67
2018-06-01T00:19:10.086Z,29.37
2018-06-01T00:21:43.767Z,31.63
2018-06-01T00:24:16.616Z,28.90
2018-06-01T00:26:49.181Z,29.23
2018-06-01T00:29:23.996Z,25.37
2018-06-01T00:32:00.739Z,28.50
2018-06-01T00:34:34.285Z,25.93
2018-06-01T00:37:07.111Z,30.77
2018-06-01T00:39:39.708Z,26.07
2018-06-01T00:42:12.263Z,25.73
2018-06-01T00:44:45.022Z,26.83
2018-06-01T00:47:17.905Z,27.97
2018-06-01T00:49:50.718Z,30.17
2018-06-01T00:52:23.718Z,31.83
2018-06-01T00:55:28.899Z,36.40
2018-06-01T00:58:01.682Z,42.70
2018-06-01T01:00:34.804Z,36.07
2018-06-01T01:03:07.431Z,44.85
2018-06-01T01:05:40.553Z,36.83
2018-06-01T01:08:14.531Z,34.70
2018-06-01T01:10:47.525Z,40.43
2018-06-01T01:13:20.733Z,34.30
2018-06-01T01:15:54.997Z,38.70
2018-06-01T01:18:27.733Z,29.77
2018-06-01T01:21:00.809Z,33.80
2018-06-01T01:23:34.331Z,32.47
2018-06-01T01:26:07.878Z,27.83
2018-06-01T01:28:40.776Z,33.15
2018-06-01T01:31:19.750Z,34.67
2018-06-01T01:33:52.352Z,32.17
2018-06-01T01:36:25.000Z,25.27
2018-06-01T01:38:58.032Z,28.47
2018-06-01T01:41:30.513Z,32.37
2018-06-01T01:44:04.281Z,31.03
2018-06-01T01:46:37.016Z,36.10
2018-06-01T01:49:09.683Z,29.83
2018-06-01T01:51:42.007Z,32.90
2018-06-01T01:54:14.845Z,32.93
2018-06-01T01:56:47.509Z,30.23
2018-06-01T01:59:20.210Z,31.10
2018-06-01T02:01:53.002Z,38.83
2018-06-01T02:04:25.567Z,29.13
2018-06-01T02:06:58.230Z,31.47
2018-06-01T02:09:32.416Z,27.57
2018-06-01T02:12:05.230Z,34.05
2018-06-01T02:14:38.210Z,31.50
2018-06-01T02:17:11.070Z,31.23
2018-06-01T02:19:43.641Z,40.20
2018-06-01T02:22:16.056Z,34.13
2018-06-01T02:24:48.863Z,33.63
2018-06-01T02:27:21.204Z,33.60
2018-06-01T02:29:53.852Z,37.53
2018-06-01T02:32:26.745Z,37.38
2018-06-01T02:34:59.441Z,31.40
2018-06-01T02:37:31.906Z,33.78
2018-06-01T02:40:05.442Z,32.90
2018-06-01T02:42:38.076Z,32.27
2018-06-01T02:45:12.114Z,41.72
2018-06-01T02:47:45.212Z,39.20
2018-06-01T02:50:22.576Z,29.93
2018-06-01T02:52:55.215Z,34.37
2018-06-01T02:55:28.283Z,32.07
2018-06-01T02:58:01.080Z,33.87
2018-06-01T03:00:33.775Z,41.60
2018-06-01T03:03:06.897Z,42.38
2018-06-01T03:05:39.324Z,38.00
2018-06-01T03:08:11.897Z,41.35
2018-06-01T03:10:44.639Z,38.67
2018-06-01T03:13:17.201Z,36.93
2018-06-01T03:15:50.168Z,39.97
2018-06-01T03:18:23.446Z,38.73
2018-06-01T03:20:55.973Z,41.77
2018-06-01T03:23:28.499Z,37.63
2018-06-01T03:26:01.706Z,40.13
2018-06-01T03:28:34.620Z,35.43
2018-06-01T03:31:07.320Z,35.07
2018-06-01T03:33:40.582Z,32.80
2018-06-01T03:36:13.645Z,33.50
2018-06-01T03:38:46.027Z,34.17
2018-06-01T03:41:19.089Z,32.77
2018-06-01T03:43:51.612Z,31.73
2018-06-01T03:46:24.550Z,31.77
2018-06-01T03:48:57.641Z,34.77
2018-06-01T03:51:30.221Z,38.67
2018-06-01T03:54:02.921Z,24.30
2018-06-01T03:56:36.089Z,36.57
2018-06-01T03:59:09.053Z,35.97
2018-06-01T04:01:42.096Z,39.22
2018-06-01T04:04:15.089Z,37.70
2018-06-01T04:06:47.564Z,33.93
2018-06-01T04:09:29.493Z,30.93
2018-06-01T04:12:02.221Z,30.60
2018-06-01T04:14:34.800Z,36.25
2018-06-01T04:17:08.189Z,42.73
2018-06-01T04:19:41.001Z,35.80
2018-06-01T04:22:14.620Z,37.27
2018-06-01T04:24:48.937Z,37.23
2018-06-01T04:27:22.584Z,37.13
2018-06-01T04:29:55.193Z,36.57
2018-06-01T04:32:27.757Z,40.47
2018-06-01T04:35:00.460Z,42.07
2018-06-01T04:37:33.964Z,42.63
2018-06-01T04:40:08.913Z,36.27
2018-06-01T04:42:42.162Z,30.93
2018-06-01T04:45:17.101Z,30.33
2018-06-01T04:47:50.021Z,19.30
2018-06-01T04:50:22.701Z,21.50
2018-06-01T04:52:55.804Z,25.53
2018-06-01T04:55:29.559Z,25.20
2018-06-01T04:58:02.920Z,37.80
2018-06-01T05:00:37.689Z,51.40
2018-06-01T05:03:11.952Z,62.60
2018-06-01T05:05:44.750Z,90.97
2018-06-01T05:08:18.007Z,118.57
2018-06-01T05:10:50.910Z,108.50
2018-06-01T05:13:23.484Z,106.77
2018-06-01T05:15:55.981Z,103.27
2018-06-01T05:18:28.854Z,103.27
2018-06-01T05:21:01.873Z,103.43
2018-06-01T05:23:34.351Z,128.87
2018-06-01T05:26:07.423Z,119.30
2018-06-01T05:28:40.848Z,112.07
2018-06-01T05:31:13.340Z,142.40
2018-06-01T05:33:46.353Z,150.17
2018-06-01T05:36:18.883Z,159.33
2018-06-01T05:38:51.477Z,156.07
2018-06-01T05:41:24.067Z,163.07
2018-06-01T05:43:56.633Z,173.00
2018-06-01T05:46:29.342Z,160.17
2018-06-01T05:49:04.190Z,213.87
2018-06-01T05:51:36.760Z,212.67
2018-06-01T05:54:11.188Z,177.68
2018-06-01T05:56:44.092Z,172.47
2018-06-01T05:59:16.629Z,159.87
2018-06-01T06:01:49.161Z,155.53
2018-06-01T06:04:21.748Z,162.10
2018-06-01T06:06:54.433Z,131.67
2018-06-01T06:09:27.444Z,121.13
2018-06-01T06:12:00.066Z,116.73
2018-06-01T06:14:33.104Z,119.87
2018-06-01T06:17:05.637Z,103.60
2018-06-01T06:19:38.149Z,132.30
2018-06-01T06:22:10.927Z,115.20
2018-06-01T06:24:43.970Z,95.43
2018-06-01T06:27:16.464Z,106.17
2018-06-01T06:29:49.418Z,108.10
2018-06-01T06:32:21.819Z,98.63
2018-06-01T06:34:54.518Z,106.13
2018-06-01T06:37:27.395Z,111.63
2018-06-01T06:40:00.535Z,122.40
2018-06-01T06:42:33.257Z,109.77
2018-06-01T06:45:07.640Z,123.47
2018-06-01T06:47:40.147Z,108.77
2018-06-01T06:50:15.020Z,103.97
2018-06-01T06:52:47.572Z,113.68
2018-06-01T06:55:20.213Z,107.90
2018-06-01T06:57:52.708Z,126.30
2018-06-01T07:00:25.605Z,131.23
2018-06-01T07:02:58.033Z,119.87
2018-06-01T07:05:30.822Z,106.93
2018-06-01T07:08:03.902Z,99.97
2018-06-01T07:10:37.513Z,92.60
2018-06-01T07:13:10.092Z,94.07
2018-06-01T07:15:43.433Z,94.23
2018-06-01T07:18:15.999Z,106.77
2018-06-01T07:20:48.647Z,105.53
2018-06-01T07:23:22.492Z,111.37
2018-06-01T07:25:55.101Z,105.80
2018-06-01T07:28:28.193Z,116.60
2018-06-01T07:32:56.002Z,94.87
2018-06-01T07:35:28.484Z,96.13
2018-06-01T07:38:01.628Z,85.57
2018-06-01T07:40:33.865Z,90.77
2018-06-01T07:43:06.317Z,87.30
2018-06-01T07:45:39.172Z,78.00
2018-06-01T07:48:11.556Z,89.17
2018-06-01T07:50:44.105Z,93.77
2018-06-01T07:53:16.496Z,92.87
2018-06-01T07:55:49.108Z,108.78
2018-06-01T07:58:21.774Z,105.73
2018-06-01T08:00:54.369Z,109.40
2018-06-01T08:03:27.186Z,100.40
2018-06-01T08:05:59.955Z,97.65
2018-06-01T08:08:32.429Z,87.77
2018-06-01T08:11:05.898Z,78.67
2018-06-01T08:13:38.940Z,79.97
2018-06-01T08:16:11.542Z,87.53
2018-06-01T08:18:44.333Z,93.67
2018-06-01T08:21:17.182Z,86.33
2018-06-01T08:23:51.857Z,95.90
2018-06-01T08:28:05.178Z,84.85
2018-06-01T08:30:38.501Z,90.43
2018-06-01T08:33:11.338Z,97.97
2018-06-01T08:35:44.043Z,94.00
2018-06-01T08:38:17.397Z,101.43
2018-06-01T08:40:50.999Z,96.57
2018-06-01T08:43:24.862Z,96.27
2018-06-01T08:45:57.732Z,78.97
2018-06-01T08:48:30.302Z,84.33
2018-06-01T08:51:02.822Z,85.43
2018-06-01T08:53:35.507Z,83.27
2018-06-01T08:56:07.943Z,96.17
2018-06-01T08:58:40.586Z,98.27
2018-06-01T09:01:15.046Z,80.20
2018-06-01T09:03:49.736Z,70.00
2018-06-01T09:06:22.801Z,81.00
2018-06-01T09:08:55.376Z,104.70
2018-06-01T09:11:27.895Z,105.57
2018-06-01T09:14:00.343Z,75.53
2018-06-01T09:16:32.612Z,95.30
2018-06-01T09:19:05.250Z,105.97
2018-06-01T09:21:39.237Z,138.18
2018-06-01T09:24:12.087Z,103.07
2018-06-01T09:26:45.104Z,128.50
2018-06-01T09:29:18.189Z,102.77
2018-06-01T09:31:52.110Z,100.93
2018-06-01T09:34:24.577Z,82.43
2018-06-01T09:36:58.192Z,75.87
2018-06-01T09:39:32.379Z,83.97
2018-06-01T09:42:04.816Z,66.90
2018-06-01T09:44:37.600Z,66.00
2018-06-01T09:47:10.209Z,65.27
2018-06-01T09:49:43.945Z,57.90
2018-06-01T09:52:16.771Z,70.25
2018-06-01T09:54:49.817Z,61.77
2018-06-01T09:57:23.351Z,70.27
2018-06-01T09:59:56.609Z,70.77
2018-06-01T10:02:29.127Z,74.80
2018-06-01T10:05:02.364Z,79.35
2018-06-01T10:07:36.252Z,68.53
2018-06-01T10:10:35.461Z,54.00
2018-06-01T10:13:16.524Z,73.90
2018-06-01T10:16:03.552Z,69.23
2018-06-01T10:18:47.377Z,69.87
2018-06-01T10:21:38.709Z,67.63
2018-06-01T10:24:23.356Z,60.07
2018-06-01T10:26:56.748Z,78.20
2018-06-01T10:29:46.665Z,75.20
2018-06-01T10:32:23.172Z,62.57
2018-06-01T10:35:13.058Z,61.78
2018-06-01T10:37:57.380Z,60.93
2018-06-01T10:40:33.623Z,56.73
2018-06-01T10:43:08.895Z,78.40
2018-06-01T10:45:43.085Z,60.80
2018-06-01T10:48:16.510Z,61.33
2018-06-01T10:50:53.161Z,64.40
2018-06-01T10:53:34.859Z,58.30
2018-06-01T10:56:10.983Z,56.40
2018-06-01T10:58:44.764Z,49.67
2018-06-01T11:01:23.257Z,51.13
2018-06-01T11:03:56.065Z,50.40
2018-06-01T11:06:31.129Z,48.13
2018-06-01T11:09:05.737Z,56.27
2018-06-01T11:11:38.059Z,54.40
2018-06-01T11:14:10.582Z,51.07
2018-06-01T11:16:43.025Z,50.40
2018-06-01T11:19:15.662Z,50.03
2018-06-01T11:21:48.611Z,55.30
2018-06-01T11:24:21.185Z,45.87
2018-06-01T11:26:58.079Z,45.20
2018-06-01T11:29:30.578Z,38.60
2018-06-01T11:32:02.956Z,47.10
2018-06-01T11:34:35.320Z,45.97
2018-06-01T11:37:08.235Z,42.30
2018-06-01T11:39:41.165Z,41.80
2018-06-01T11:42:13.475Z,44.57
2018-06-01T11:44:46.257Z,50.00
2018-06-01T11:47:18.686Z,48.00
2018-06-01T11:49:51.353Z,58.30
2018-06-01T11:52:24.548Z,58.13
2018-06-01T11:54:57.953Z,56.00
2018-06-01T11:57:30.780Z,61.93
2018-06-01T12:00:05.442Z,63.20
2018-06-01T12:02:37.794Z,66.53
2018-06-01T12:05:10.501Z,64.53
2018-06-01T12:07:42.996Z,68.07
2018-06-01T12:10:17.068Z,71.20
2018-06-01T12:12:50.959Z,67.87
2018-06-01T12:15:24.459Z,68.77
2018-06-01T12:17:57.743Z,64.40
2018-06-01T12:20:31.076Z,67.93
2018-06-01T12:23:03.660Z,74.23
2018-06-01T12:25:36.577Z,77.90
2018-06-01T12:28:09.067Z,80.82
2018-06-01T12:30:41.655Z,76.57
2018-06-01T12:33:14.459Z,78.90
2018-06-01T12:35:47.258Z,87.53
2018-06-01T12:38:20.605Z,78.63
2018-06-01T12:40:53.799Z,83.30
2018-06-01T12:43:26.427Z,87.97
2018-06-01T12:45:59.431Z,86.10
2018-06-01T12:48:32.370Z,92.55
2018-06-01T12:51:05.003Z,83.20
2018-06-01T12:53:37.552Z,74.93
2018-06-01T12:56:10.693Z,86.37
2018-06-01T12:58:43.045Z,92.13
2018-06-01T13:01:15.706Z,91.23
2018-06-01T13:03:48.241Z,90.63
2018-06-01T13:06:20.988Z,102.27
2018-06-01T13:08:53.691Z,97.60
2018-06-01T13:11:26.324Z,105.67
2018-06-01T13:13:59.632Z,115.67
2018-06-01T13:16:34.053Z,131.18
2018-06-01T13:19:06.618Z,101.63
2018-06-01T13:21:39.568Z,113.63
2018-06-01T13:24:12.097Z,119.73
2018-06-01T13:26:44.548Z,120.80
2018-06-01T13:29:17.285Z,125.53
2018-06-01T13:31:50.655Z,115.30
2018-06-01T13:34:23.041Z,130.23
2018-06-01T13:36:59.226Z,118.13
2018-06-01T13:39:32.128Z,118.93
2018-06-01T13:42:05.454Z,120.27
2018-06-01T13:44:38.110Z,128.43
2018-06-01T13:47:10.700Z,131.10
2018-06-01T13:49:43.407Z,136.85
2018-06-01T13:52:16.103Z,144.77
2018-06-01T13:54:48.588Z,139.27
2018-06-01T13:57:21.400Z,143.17
2018-06-01T13:59:54.689Z,154.83
2018-06-01T14:02:27.528Z,147.23
2018-06-01T14:05:00.950Z,162.00
2018-06-01T14:07:34.962Z,150.40
2018-06-01T14:10:07.326Z,170.40
2018-06-01T14:12:40.149Z,170.03
2018-06-01T14:15:13.805Z,163.53
2018-06-01T14:17:46.306Z,151.87
2018-06-01T14:20:19.122Z,147.63
2018-06-01T14:22:51.787Z,150.10
2018-06-01T14:25:24.308Z,152.70
2018-06-01T14:27:57.259Z,152.40
2018-06-01T14:30:29.906Z,158.53
2018-06-01T14:33:02.756Z,149.13
2018-06-01T14:35:35.672Z,145.70
2018-06-01T14:38:08.484Z,159.77
2018-06-01T14:40:41.577Z,159.05
2018-06-01T14:43:15.472Z,144.23
2018-06-01T14:45:48.132Z,123.43
2018-06-01T14:48:20.841Z,144.33
2018-06-01T14:50:54.499Z,138.23
2018-06-01T14:53:27.305Z,128.93
2018-06-01T14:56:00.167Z,132.53
2018-06-01T14:58:33.046Z,129.83
2018-06-01T15:01:05.530Z,151.87
2018-06-01T15:03:38.030Z,159.47
2018-06-01T15:06:10.763Z,165.77
2018-06-01T15:08:43.441Z,156.80
2018-06-01T15:11:15.921Z,161.43
2018-06-01T15:13:54.367Z,190.10
2018-06-01T15:16:27.508Z,219.17
2018-06-01T15:19:00.234Z,224.27
2018-06-01T15:21:34.043Z,246.50
2018-06-01T15:24:06.624Z,212.93
2018-06-01T15:26:39.182Z,219.73
2018-06-01T15:29:11.885Z,201.27
2018-06-01T15:31:44.729Z,209.30
2018-06-01T15:34:17.251Z,202.23
2018-06-01T15:36:50.511Z,217.20
2018-06-01T15:39:23.080Z,235.30
2018-06-01T15:41:55.825Z,212.00
2018-06-01T15:44:28.893Z,213.13
2018-06-01T15:47:01.290Z,208.90
2018-06-01T15:49:34.864Z,189.80
2018-06-01T15:52:08.537Z,217.73
2018-06-01T15:54:41.217Z,234.30
2018-06-01T15:57:14.064Z,224.17
2018-06-01T15:59:50.724Z,208.80
2018-06-01T16:04:53.729Z,190.70
2018-06-01T16:07:26.889Z,205.10
2018-06-01T16:09:59.247Z,192.73
2018-06-01T16:12:32.222Z,182.03
2018-06-01T16:15:06.307Z,164.97
2018-06-01T16:17:38.836Z,165.20
2018-06-01T16:20:11.642Z,155.33
2018-06-01T16:22:44.656Z,164.63
2018-06-01T16:25:17.285Z,183.13
2018-06-01T16:27:50.433Z,171.00
2018-06-01T16:30:23.010Z,159.43
2018-06-01T16:32:55.352Z,140.03
2018-06-01T16:35:28.136Z,170.47
2018-06-01T16:38:02.257Z,177.83
2018-06-01T16:40:35.754Z,133.40
2018-06-01T16:43:09.507Z,155.73
2018-06-01T16:45:41.931Z,160.83
2018-06-01T16:48:14.271Z,165.98
2018-06-01T16:50:47.107Z,149.95
2018-06-01T16:53:19.609Z,134.53
2018-06-01T16:55:52.018Z,129.00
2018-06-01T16:58:24.785Z,141.80
2018-06-01T17:00:57.359Z,114.07
2018-06-01T17:03:29.783Z,127.03
2018-06-01T17:06:07.381Z,124.70
2018-06-01T17:08:40.732Z,118.10
2018-06-01T17:11:13.149Z,123.80
2018-06-01T17:13:45.916Z,126.43
2018-06-01T17:16:19.194Z,124.07
2018-06-01T17:18:52.970Z,121.40
2018-06-01T17:21:27.312Z,110.87
2018-06-01T17:24:01.669Z,118.00
2018-06-01T17:26:34.545Z,108.70
2018-06-01T17:29:12.089Z,102.07
2018-06-01T17:31:46.064Z,99.23
2018-06-01T17:34:24.112Z,105.43
2018-06-01T17:36:59.507Z,94.57
2018-06-01T17:39:42.194Z,74.50
2018-06-01T17:42:20.711Z,75.83
2018-06-01T17:44:53.915Z,68.23
2018-06-01T17:47:28.612Z,57.97
2018-06-01T17:50:01.324Z,50.57
2018-06-01T17:52:34.708Z,54.92
2018-06-01T17:55:07.626Z,48.07
2018-06-01T17:57:40.223Z,49.43
2018-06-01T18:00:16.171Z,43.60
2018-06-01T18:02:50.024Z,47.17
2018-06-01T18:05:29.035Z,44.57
2018-06-01T18:08:08.192Z,44.60
2018-06-01T18:10:46.409Z,47.83
2018-06-01T18:13:22.445Z,38.73
2018-06-01T18:16:02.208Z,40.30
2018-06-01T18:18:36.869Z,40.10
2018-06-01T18:21:09.864Z,39.57
2018-06-01T18:23:43.885Z,38.13
2018-06-01T18:26:17.491Z,38.60
2018-06-01T18:28:49.979Z,44.10
2018-06-01T18:31:22.656Z,45.17
2018-06-01T18:33:55.571Z,44.40
2018-06-01T18:36:27.964Z,44.40
2018-06-01T18:39:00.595Z,45.80
2018-06-01T18:41:33.132Z,38.90
2018-06-01T18:44:07.015Z,45.17
2018-06-01T18:46:39.440Z,48.17
2018-06-01T18:49:11.882Z,55.08
2018-06-01T18:51:44.192Z,49.50
2018-06-01T18:54:16.832Z,53.00
2018-06-01T18:56:49.392Z,61.53
2018-06-01T18:59:23.314Z,63.77
2018-06-01T19:01:55.800Z,72.53
2018-06-01T19:04:28.316Z,74.50
2018-06-01T19:07:01.203Z,90.63
2018-06-01T19:09:33.801Z,102.83
2018-06-01T19:12:07.172Z,97.80
2018-06-01T19:14:39.953Z,104.70
2018-06-01T19:17:12.571Z,109.17
2018-06-01T19:19:45.124Z,107.60
2018-06-01T19:22:17.823Z,95.28
2018-06-01T19:24:50.920Z,102.53
2018-06-01T19:27:23.177Z,105.20
2018-06-01T19:29:55.993Z,106.83
2018-06-01T19:32:28.615Z,108.73
2018-06-01T19:35:01.370Z,105.00
2018-06-01T19:37:34.129Z,107.30
2018-06-01T19:40:06.957Z,119.73
2018-06-01T19:42:39.549Z,111.67
2018-06-01T19:45:14.077Z,110.83
2018-06-01T19:47:46.780Z,114.43
2018-06-01T19:50:19.243Z,120.43
2018-06-01T19:52:52.775Z,116.20
2018-06-01T19:55:25.205Z,127.40
2018-06-01T19:57:57.668Z,116.37
2018-06-01T20:00:30.483Z,103.00
2018-06-01T20:03:03.013Z,96.60
2018-06-01T20:05:35.678Z,101.10
2018-06-01T20:08:08.637Z,92.83
2018-06-01T20:10:45.091Z,94.87
2018-06-01T20:13:19.336Z,89.25
2018-06-01T20:15:53.375Z,79.50
2018-06-01T20:18:27.608Z,83.30
2018-06-01T20:21:00.544Z,86.10
2018-06-01T20:23:33.908Z,79.93
2018-06-01T20:26:06.949Z,88.60
2018-06-01T20:28:42.172Z,100.93
2018-06-01T20:31:16.216Z,91.43
2018-06-01T20:33:51.075Z,87.05
2018-06-01T20:36:26.256Z,100.40
2018-06-01T20:39:00.259Z,109.67
2018-06-01T20:41:33.258Z,111.70
2018-06-01T20:44:06.468Z,106.03
2018-06-01T20:46:40.214Z,105.80
2018-06-01T20:49:12.855Z,99.83
2018-06-01T20:51:47.076Z,111.63
2018-06-01T20:54:20.345Z,105.05
2018-06-01T20:56:53.178Z,116.37
2018-06-01T20:59:27.532Z,116.03
2018-06-01T21:02:02.288Z,126.50
2018-06-01T21:04:34.836Z,126.47
2018-06-01T21:07:08.060Z,100.60
2018-06-01T21:09:40.873Z,105.50
2018-06-01T21:12:13.478Z,109.17
2018-06-01T21:14:46.206Z,107.85
2018-06-01T21:17:19.429Z,99.67
2018-06-01T21:19:51.864Z,99.50
2018-06-01T21:22:24.340Z,106.13
2018-06-01T21:24:57.068Z,107.37
2018-06-01T21:27:29.642Z,101.00
2018-06-01T21:30:04.984Z,96.87
2018-06-01T21:32:38.009Z,99.20
2018-06-01T21:35:10.408Z,114.97
2018-06-01T21:37:43.694Z,111.30
2018-06-01T21:40:17.204Z,114.63
2018-06-01T21:43:03.117Z,120.40
2018-06-01T21:45:36.723Z,120.63
2018-06-01T21:48:09.279Z,125.43
2018-06-01T21:50:42.496Z,123.23
2018-06-01T21:53:15.623Z,120.70
2018-06-01T21:55:48.164Z,116.37
2018-06-01T21:58:21.128Z,113.37
2018-06-01T22:00:53.649Z,109.77
2018-06-01T22:03:28.602Z,122.00
2018-06-01T22:06:01.787Z,120.67
2018-06-01T22:08:39.543Z,112.47
2018-06-01T22:11:12.183Z,118.13
2018-06-01T22:13:45.093Z,114.40
2018-06-01T22:16:18.531Z,113.47
2018-06-01T22:18:51.362Z,108.23
2018-06-01T22:21:25.429Z,115.62
2018-06-01T22:23:58.229Z,107.93
2018-06-01T22:26:30.867Z,108.10
2018-06-01T22:29:03.851Z,121.97
2018-06-01T22:31:36.397Z,121.30
2018-06-01T22:34:08.780Z,121.93
2018-06-01T22:36:41.490Z,130.03
2018-06-01T22:39:14.311Z,130.43
2018-06-01T22:41:46.667Z,139.47
2018-06-01T22:44:19.980Z,151.77
2018-06-01T22:46:52.268Z,152.67
2018-06-01T22:49:24.892Z,138.33
2018-06-01T22:51:57.897Z,167.67
2018-06-01T22:54:30.410Z,158.10
2018-06-01T22:57:02.829Z,161.73
2018-06-01T22:59:36.344Z,167.47
2018-06-01T23:02:08.721Z,157.75
2018-06-01T23:04:41.161Z,153.13
2018-06-01T23:07:14.635Z,151.77
2018-06-01T23:09:47.112Z,154.90
2018-06-01T23:12:20.385Z,151.63
2018-06-01T23:14:54.539Z,147.10
2018-06-01T23:17:27.244Z,149.63
2018-06-01T23:20:00.755Z,135.68
2018-06-01T23:22:34.153Z,145.40
2018-06-01T23:25:06.564Z,139.70
2018-06-01T23:27:39.113Z,137.57
2018-06-01T23:30:13.325Z,125.90
2018-06-01T23:32:45.958Z,144.83
2018-06-01T23:35:18.786Z,141.63
2018-06-01T23:37:51.492Z,132.87
2018-06-01T23:40:23.904Z,135.83
2018-06-01T23:42:57.229Z,134.07
2018-06-01T23:45:30.040Z,128.30
2018-06-01T23:48:02.864Z,129.67
2018-06-01T23:50:35.392Z,123.07
2018-06-01T23:53:08.463Z,134.93
2018-06-01T23:55:46.529Z,137.50
2018-06-01T23:58:19.965Z,136.98
